• Join FlightAware (Why Join?)
  • Login
  • US Flag 
10:10PM EDT


 

Airport Tracker/Info


-or-


 

Live Flight TrackerFlight Track Log ✈ N449ND ✈ 27-Mar-2014 ✈ KPIE - KORL

Flight Track Log - Related Links

Times and Time Zones

All times are in EDT time to prevent confusion due to time zone crossing. See the N449ND flight status page for this flight to view local times or setup timezone preferences in your user account.

Time Position Orientation Groundspeed Altitude Reporting Facility
EDT Latitude Longitude Course Direction KTS MPH feet Rate Location/Type
10:18AM 27.9500 -82.7000 345° North 104 120 1,100  Level Tampa TRACON
10:19AM 27.9833 -82.7167 336° Northwest 99 114 1,700 600 Climbing Tampa TRACON
10:20AM 27.9833 -82.6833 90° East 64 74 2,500 600 Climbing Tampa TRACON
10:21AM 27.9833 -82.6667 90° East 64 74 2,900 300 Climbing Tampa TRACON
10:22AM 27.9833 -82.6500 90° East 80 92 3,100 60 Climbing Tampa TRACON
10:23AM 27.9667 -82.6167 120° Southeast 103 119 3,100  Level Tampa TRACON
10:24AM 27.9667 -82.5833 90° East 99 114 3,100 -60 Level Tampa TRACON
10:25AM 27.9667 -82.5500 90° East 99 114 3,000 -60 Descending Tampa TRACON
10:26AM 27.9667 -82.5333 90° East 94 108 3,000  Level Tampa TRACON
10:27AM 27.9667 -82.5000 90° East 87 100 3,000  Level Tampa TRACON
10:28AM 27.9667 -82.4667 90° East 84 97 3,000 180 Level Tampa TRACON
10:29AM 27.9667 -82.4500 90° East 83 96 3,400 360 Climbing Tampa TRACON
10:30AM 27.9667 -82.4333 90° East 95 109 3,800 300 Climbing Tampa TRACON
10:31AM 28.0000 -82.4000 41° Northeast 107 123 4,100 120 Climbing Tampa TRACON
10:32AM 28.0167 -82.3667 60° Northeast 115 132 4,100 -60 Level Tampa TRACON
10:33AM 28.0333 -82.3500 41° Northeast 111 128 4,000 180 Descending Tampa TRACON
10:34AM 28.0500 -82.3167 60° Northeast 100 115 4,500 480 Climbing Tampa TRACON
10:35AM 28.0667 -82.3000 41° Northeast 94 108 5,000 300 Climbing Tampa TRACON
10:36AM 28.0833 -82.2667 60° Northeast 106 122 5,100  Climbing Tampa TRACON
10:37AM 28.1000 -82.2500 41° Northeast 116 133 5,100  Level Tampa TRACON
10:38AM 28.1167 -82.2167 60° Northeast 111 128 5,100  Level Tampa TRACON
10:39AM 28.1333 -82.1833 60° Northeast 112 129 5,100  Level Tampa TRACON
10:40AM 28.1500 -82.1500 60° Northeast 117 135 5,100 -60 Level Tampa TRACON
10:42AM 28.2000 -82.0667 56° Northeast 117 135 5,000 -60 Descending Orlando TRACON
10:43AM 28.2167 -82.0500 41° Northeast 116 133 5,000  Level Orlando TRACON
10:44AM 28.2333 -82.0167 60° Northeast 115 132 5,000  Level Orlando TRACON
10:45AM 28.2667 -82.0000 24° Northeast 115 132 5,000  Level Orlando TRACON
10:46AM 28.2833 -81.9500 69° East 116 133 5,100  Climbing Orlando TRACON
10:47AM 28.3000 -81.9333 41° Northeast 113 130 5,000 -240 Descending Orlando TRACON
10:48AM 28.3167 -81.9000 60° Northeast 110 127 4,700 -360 Descending Orlando TRACON
10:49AM 28.3500 -81.8833 24° Northeast 112 129 4,300 -420 Descending Orlando TRACON
10:50AM 28.3667 -81.8500 60° Northeast 111 128 3,800 -540 Descending Orlando TRACON
10:51AM 28.3833 -81.8333 41° Northeast 101 116 3,300 -600 Descending Orlando TRACON
10:52AM 28.4000 -81.8000 60° Northeast 100 115 2,700 -480 Descending Orlando TRACON
10:53AM 28.4167 -81.7833 41° Northeast 98 113 2,400 -360 Descending Orlando TRACON
10:54AM 28.4333 -81.7667 41° Northeast 96 110 2,100 -240 Descending Orlando TRACON
10:55AM 28.4500 -81.7333 60° Northeast 97 112 2,000  Descending Orlando TRACON
10:56AM 28.4667 -81.7167 41° Northeast 83 96 2,100  Climbing Orlando TRACON
10:57AM 28.4833 -81.6833 60° Northeast 96 110 2,000 -60 Descending Orlando TRACON
10:58AM 28.4833 -81.6667 90° East 92 106 2,000  Level Orlando TRACON
10:59AM 28.4833 -81.6333 90° East 91 105 2,000  Level Orlando TRACON
11:00AM 28.4833 -81.6000 90° East 93 107 2,000  Level Orlando TRACON
11:01AM 28.4833 -81.5667 90° East 90 104 2,000  Level Orlando TRACON
11:02AM 28.5000 -81.5500 41° Northeast 93 107 2,000  Level Orlando TRACON
11:03AM 28.5000 -81.5167 90° East 91 105 2,000  Level Orlando TRACON
11:04AM 28.5000 -81.4833 90° East 89 102 2,000  Level Orlando TRACON
11:05AM 28.5000 -81.4667 90° East 96 110 2,000 -60 Level Orlando TRACON
11:06AM 28.5167 -81.4333 60° Northeast 97 112 1,900 -240 Descending Orlando TRACON
11:07AM 28.5167 -81.4000 90° East 92 106 1,500 -540 Descending Orlando TRACON
11:08AM 28.5333 -81.3667 60° Northeast 94 108 900 -600 Descending Orlando TRACON
11:09AM 28.5333 -81.3500 90° East 88 101 400 -600 Descending Orlando TRACON